sensor_id;sensor_type;location;lat;lon;timestamp;pressure;altitude;pressure_sealevel;temperature;humidity
12197;BME280;6161;43.014;25.840;2022-11-20T00:02:48;99089.19;;;19.12;nan
12197;BME280;6161;43.014;25.840;2022-11-20T00:07:39;99094.81;;;19.18;nan
12197;BME280;6161;43.014;25.840;2022-11-20T00:10:05;99085.63;;;19.19;nan
12197;BME280;6161;43.014;25.840;2022-11-20T00:14:56;99125.13;;;19.21;nan
12197;BME280;6161;43.014;25.840;2022-11-20T00:17:21;99101.69;;;19.20;nan
12197;BME280;6161;43.014;25.840;2022-11-20T00:19:47;99075.97;;;19.23;nan
12197;BME280;6161;43.014;25.840;2022-11-20T00:22:12;99092.50;;;19.28;nan
12197;BME280;6161;43.014;25.840;2022-11-20T00:36:44;99010.38;;;19.44;nan
12197;BME280;6161;43.014;25.840;2022-11-20T00:41:35;99095.94;;;19.48;nan
12197;BME280;6161;43.014;25.840;2022-11-20T00:53:45;99020.34;;;19.57;nan
12197;BME280;6161;43.014;25.840;2022-11-20T00:56:13;99091.88;;;19.57;nan
12197;BME280;6161;43.014;25.840;2022-11-20T01:01:12;99202.19;;;19.53;nan
12197;BME280;6161;43.014;25.840;2022-11-20T01:11:17;99074.72;;;19.64;nan
12197;BME280;6161;43.014;25.840;2022-11-20T01:13:43;99062.59;;;19.59;nan
12197;BME280;6161;43.014;25.840;2022-11-20T01:16:16;99073.44;;;19.66;nan
12197;BME280;6161;43.014;25.840;2022-11-20T01:18:44;99096.47;;;19.70;nan
12197;BME280;6161;43.014;25.840;2022-11-20T01:26:10;99004.56;;;19.72;nan
12197;BME280;6161;43.014;25.840;2022-11-20T01:28:36;99055.41;;;19.72;nan
12197;BME280;6161;43.014;25.840;2022-11-20T01:31:11;99029.91;;;19.73;nan
12197;BME280;6161;43.014;25.840;2022-11-20T01:33:37;99063.13;;;19.75;nan
12197;BME280;6161;43.014;25.840;2022-11-20T01:36:04;99093.94;;;19.75;nan
12197;BME280;6161;43.014;25.840;2022-11-20T01:40:55;99106.09;;;19.73;nan
12197;BME280;6161;43.014;25.840;2022-11-20T01:43:21;99040.53;;;19.74;nan
12197;BME280;6161;43.014;25.840;2022-11-20T01:48:21;98998.91;;;19.74;nan
12197;BME280;6161;43.014;25.840;2022-11-20T01:50:51;99011.06;;;19.71;nan
12197;BME280;6161;43.014;25.840;2022-11-20T01:53:22;99044.09;;;19.75;nan
12197;BME280;6161;43.014;25.840;2022-11-20T01:55:51;99059.81;;;19.73;nan
12197;BME280;6161;43.014;25.840;2022-11-20T01:58:22;98997.00;;;19.74;nan
12197;BME280;6161;43.014;25.840;2022-11-20T02:00:50;99000.56;;;19.75;nan
12197;BME280;6161;43.014;25.840;2022-11-20T02:03:17;99055.03;;;19.68;nan
12197;BME280;6161;43.014;25.840;2022-11-20T02:05:59;99031.16;;;19.70;nan
12197;BME280;6161;43.014;25.840;2022-11-20T02:08:27;99017.78;;;19.69;nan
12197;BME280;6161;43.014;25.840;2022-11-20T02:10:53;99033.28;;;19.62;nan
12197;BME280;6161;43.014;25.840;2022-11-20T02:13:18;99016.97;;;19.62;nan
12197;BME280;6161;43.014;25.840;2022-11-20T02:18:28;99007.75;;;19.63;nan
12197;BME280;6161;43.014;25.840;2022-11-20T02:21:00;99069.28;;;19.64;nan
12197;BME280;6161;43.014;25.840;2022-11-20T02:24:14;99091.03;;;19.64;nan
12197;BME280;6161;43.014;25.840;2022-11-20T02:26:21;99082.88;;;19.64;nan
12197;BME280;6161;43.014;25.840;2022-11-20T02:28:48;98989.31;;;19.65;nan
12197;BME280;6161;43.014;25.840;2022-11-20T02:33:39;98980.56;;;19.63;nan
12197;BME280;6161;43.014;25.840;2022-11-20T02:36:05;99030.56;;;19.68;nan
12197;BME280;6161;43.014;25.840;2022-11-20T02:38:31;99070.53;;;19.68;nan
12197;BME280;6161;43.014;25.840;2022-11-20T02:43:22;99075.16;;;19.61;nan
12197;BME280;6161;43.014;25.840;2022-11-20T02:45:48;99079.31;;;19.63;nan
12197;BME280;6161;43.014;25.840;2022-11-20T02:48:13;98963.81;;;19.59;nan
12197;BME280;6161;43.014;25.840;2022-11-20T02:50:39;99086.03;;;19.61;nan
12197;BME280;6161;43.014;25.840;2022-11-20T02:53:05;98974.25;;;19.62;nan
12197;BME280;6161;43.014;25.840;2022-11-20T02:55:31;98985.75;;;19.64;nan
12197;BME280;6161;43.014;25.840;2022-11-20T02:57:56;99052.50;;;19.67;nan
12197;BME280;6161;43.014;25.840;2022-11-20T03:02:47;99037.88;;;19.68;nan
12197;BME280;6161;43.014;25.840;2022-11-20T03:05:12;98964.81;;;19.65;nan
12197;BME280;6161;43.014;25.840;2022-11-20T03:10:04;99002.41;;;19.49;nan
12197;BME280;6161;43.014;25.840;2022-11-20T03:12:30;99002.75;;;19.59;nan
12197;BME280;6161;43.014;25.840;2022-11-20T03:14:55;98980.97;;;19.59;nan
12197;BME280;6161;43.014;25.840;2022-11-20T03:17:20;98996.09;;;19.55;nan
12197;BME280;6161;43.014;25.840;2022-11-20T03:19:46;99027.66;;;19.56;nan
12197;BME280;6161;43.014;25.840;2022-11-20T03:22:11;99003.19;;;19.56;nan
12197;BME280;6161;43.014;25.840;2022-11-20T03:24:37;98965.47;;;19.60;nan
12197;BME280;6161;43.014;25.840;2022-11-20T03:27:02;98975.97;;;19.56;nan
12197;BME280;6161;43.014;25.840;2022-11-20T03:29:27;98914.03;;;19.58;nan
12197;BME280;6161;43.014;25.840;2022-11-20T03:31:53;98985.13;;;19.62;nan
12197;BME280;6161;43.014;25.840;2022-11-20T03:34:18;98908.53;;;19.65;nan
12197;BME280;6161;43.014;25.840;2022-11-20T03:36:44;98970.47;;;19.70;nan
12197;BME280;6161;43.014;25.840;2022-11-20T03:39:10;98984.31;;;19.68;nan
12197;BME280;6161;43.014;25.840;2022-11-20T03:53:57;98893.72;;;19.61;nan
12197;BME280;6161;43.014;25.840;2022-11-20T03:58:49;98948.34;;;19.59;nan
12197;BME280;6161;43.014;25.840;2022-11-20T04:01:18;98976.44;;;19.53;nan
12197;BME280;6161;43.014;25.840;2022-11-20T04:03:44;98985.13;;;19.62;nan
12197;BME280;6161;43.014;25.840;2022-11-20T04:06:22;99021.13;;;19.64;nan
12197;BME280;6161;43.014;25.840;2022-11-20T04:11:23;98989.38;;;19.58;nan
12197;BME280;6161;43.014;25.840;2022-11-20T04:13:53;98972.19;;;19.57;nan
12197;BME280;6161;43.014;25.840;2022-11-20T04:16:19;99007.81;;;19.56;nan
12197;BME280;6161;43.014;25.840;2022-11-20T04:21:11;99024.50;;;19.59;nan
12197;BME280;6161;43.014;25.840;2022-11-20T04:23:36;99017.78;;;19.62;nan
12197;BME280;6161;43.014;25.840;2022-11-20T04:28:28;99010.72;;;19.54;nan
12197;BME280;6161;43.014;25.840;2022-11-20T04:33:19;99014.50;;;19.53;nan
12197;BME280;6161;43.014;25.840;2022-11-20T04:35:46;98982.91;;;19.52;nan
12197;BME280;6161;43.014;25.840;2022-11-20T04:38:12;99037.09;;;19.54;nan
12197;BME280;6161;43.014;25.840;2022-11-20T04:40:37;98996.13;;;19.49;nan
12197;BME280;6161;43.014;25.840;2022-11-20T04:43:03;98983.34;;;19.49;nan
12197;BME280;6161;43.014;25.840;2022-11-20T04:47:54;98958.88;;;19.49;nan
12197;BME280;6161;43.014;25.840;2022-11-20T04:50:19;99009.53;;;19.50;nan
12197;BME280;6161;43.014;25.840;2022-11-20T04:52:44;98905.72;;;19.53;nan
12197;BME280;6161;43.014;25.840;2022-11-20T04:55:10;98958.22;;;19.54;nan
12197;BME280;6161;43.014;25.840;2022-11-20T04:57:35;98911.97;;;19.54;nan
12197;BME280;6161;43.014;25.840;2022-11-20T05:00:01;98965.28;;;19.62;nan
12197;BME280;6161;43.014;25.840;2022-11-20T05:02:26;98949.16;;;19.60;nan
12197;BME280;6161;43.014;25.840;2022-11-20T05:07:17;99012.44;;;19.49;nan
12197;BME280;6161;43.014;25.840;2022-11-20T05:09:42;98921.59;;;19.56;nan
12197;BME280;6161;43.014;25.840;2022-11-20T05:12:08;98970.91;;;19.60;nan
12197;BME280;6161;43.014;25.840;2022-11-20T05:17:02;98988.09;;;19.61;nan
12197;BME280;6161;43.014;25.840;2022-11-20T05:19:28;98942.06;;;19.59;nan
12197;BME280;6161;43.014;25.840;2022-11-20T05:21:53;98978.50;;;19.58;nan
12197;BME280;6161;43.014;25.840;2022-11-20T05:24:19;98891.81;;;19.62;nan
12197;BME280;6161;43.014;25.840;2022-11-20T05:26:44;98958.19;;;19.61;nan
12197;BME280;6161;43.014;25.840;2022-11-20T05:29:13;98903.09;;;19.65;nan
12197;BME280;6161;43.014;25.840;2022-11-20T05:31:40;98943.69;;;19.67;nan
12197;BME280;6161;43.014;25.840;2022-11-20T05:38:57;99113.63;;;19.64;nan
12197;BME280;6161;43.014;25.840;2022-11-20T05:43:50;98965.88;;;19.64;nan
12197;BME280;6161;43.014;25.840;2022-11-20T05:46:18;98934.50;;;19.68;nan
12197;BME280;6161;43.014;25.840;2022-11-20T05:48:44;99016.94;;;19.68;nan
12197;BME280;6161;43.014;25.840;2022-11-20T05:53:37;98906.22;;;19.69;nan
12197;BME280;6161;43.014;25.840;2022-11-20T05:56:13;98942.84;;;19.73;nan
12197;BME280;6161;43.014;25.840;2022-11-20T06:01:19;98950.69;;;19.81;nan
12197;BME280;6161;43.014;25.840;2022-11-20T06:08:38;99027.72;;;19.82;nan
12197;BME280;6161;43.014;25.840;2022-11-20T06:13:30;99013.94;;;19.76;nan
12197;BME280;6161;43.014;25.840;2022-11-20T06:18:21;99024.78;;;19.83;nan
12197;BME280;6161;43.014;25.840;2022-11-20T06:28:06;99021.34;;;19.94;nan
12197;BME280;6161;43.014;25.840;2022-11-20T06:30:32;99044.72;;;20.02;nan
12197;BME280;6161;43.014;25.840;2022-11-20T06:37:48;98973.06;;;20.08;nan
12197;BME280;6161;43.014;25.840;2022-11-20T06:40:13;99055.56;;;20.09;nan
12197;BME280;6161;43.014;25.840;2022-11-20T06:42:39;98955.59;;;20.16;nan
12197;BME280;6161;43.014;25.840;2022-11-20T06:49:55;99014.16;;;20.43;nan
12197;BME280;6161;43.014;25.840;2022-11-20T06:52:20;99024.19;;;20.50;nan
12197;BME280;6161;43.014;25.840;2022-11-20T06:54:46;99075.31;;;20.48;nan
12197;BME280;6161;43.014;25.840;2022-11-20T06:57:11;99104.63;;;20.52;nan
12197;BME280;6161;43.014;25.840;2022-11-20T06:59:37;99093.06;;;20.57;nan
12197;BME280;6161;43.014;25.840;2022-11-20T07:02:02;99006.56;;;20.52;nan
12197;BME280;6161;43.014;25.840;2022-11-20T07:06:53;99124.88;;;20.63;nan
12197;BME280;6161;43.014;25.840;2022-11-20T07:09:18;99084.22;;;20.61;nan
12197;BME280;6161;43.014;25.840;2022-11-20T07:11:44;99061.03;;;20.52;nan
12197;BME280;6161;43.014;25.840;2022-11-20T07:16:35;99202.13;;;20.12;nan
12197;BME280;6161;43.014;25.840;2022-11-20T07:19:01;99184.44;;;19.96;nan
12197;BME280;6161;43.014;25.840;2022-11-20T07:23:51;99198.38;;;18.89;nan
12197;BME280;6161;43.014;25.840;2022-11-20T07:26:17;99202.94;;;18.09;nan
12197;BME280;6161;43.014;25.840;2022-11-20T07:28:44;99106.34;;;17.47;nan
12197;BME280;6161;43.014;25.840;2022-11-20T07:31:10;99183.69;;;17.01;nan
12197;BME280;6161;43.014;25.840;2022-11-20T07:36:02;99226.34;;;15.85;nan
12197;BME280;6161;43.014;25.840;2022-11-20T07:43:19;99206.06;;;14.70;nan
12197;BME280;6161;43.014;25.840;2022-11-20T08:24:57;99143.00;;;12.85;nan
12197;BME280;6161;43.014;25.840;2022-11-20T08:29:48;99248.31;;;12.66;nan
12197;BME280;6161;43.014;25.840;2022-11-20T08:34:38;99276.38;;;13.04;nan
12197;BME280;6161;43.014;25.840;2022-11-20T08:54:05;99256.00;;;12.93;nan
12197;BME280;6161;43.014;25.840;2022-11-20T08:56:32;99259.06;;;12.82;nan
12197;BME280;6161;43.014;25.840;2022-11-20T08:58:58;99211.47;;;12.83;nan
12197;BME280;6161;43.014;25.840;2022-11-20T09:03:50;99103.47;;;12.86;nan
12197;BME280;6161;43.014;25.840;2022-11-20T09:08:41;99162.38;;;12.64;nan
12197;BME280;6161;43.014;25.840;2022-11-20T09:16:02;99171.50;;;12.39;nan
12197;BME280;6161;43.014;25.840;2022-11-20T09:18:29;61577.66;;;-145.31;0.00
12197;BME280;6161;43.014;25.840;2022-11-20T09:23:27;99134.22;;;12.19;nan
12197;BME280;6161;43.014;25.840;2022-11-20T09:28:25;99154.56;;;12.05;nan
12197;BME280;6161;43.014;25.840;2022-11-20T09:38:06;99072.56;;;12.18;nan
12197;BME280;6161;43.014;25.840;2022-11-20T10:14:23;99025.91;;;12.58;nan
12197;BME280;6161;43.014;25.840;2022-11-20T10:24:56;99112.09;;;12.73;nan
12197;BME280;6161;43.014;25.840;2022-11-20T10:30:00;99147.38;;;12.86;nan
12197;BME280;6161;43.014;25.840;2022-11-20T10:35:01;99107.81;;;12.95;nan
12197;BME280;6161;43.014;25.840;2022-11-20T11:06:22;99072.28;;;13.62;nan
12197;BME280;6161;43.014;25.840;2022-11-20T11:13:50;99117.34;;;13.68;nan
12197;BME280;6161;43.014;25.840;2022-11-20T11:21:10;99021.72;;;13.87;nan
12197;BME280;6161;43.014;25.840;2022-11-20T11:28:33;99246.91;;;13.67;nan
12197;BME280;6161;43.014;25.840;2022-11-20T11:33:27;99066.63;;;13.95;nan
12197;BME280;6161;43.014;25.840;2022-11-20T11:36:04;99001.94;;;13.95;nan
12197;BME280;6161;43.014;25.840;2022-11-20T11:38:42;99041.81;;;13.99;nan
12197;BME280;6161;43.014;25.840;2022-11-20T11:54:24;99020.44;;;14.13;nan
12197;BME280;6161;43.014;25.840;2022-11-20T12:12:18;99106.47;;;14.22;nan
12197;BME280;6161;43.014;25.840;2022-11-20T12:27:20;99100.47;;;14.50;nan
12197;BME280;6161;43.014;25.840;2022-11-20T13:36:49;99196.50;;;14.21;nan
12197;BME280;6161;43.014;25.840;2022-11-20T13:41:55;99167.00;;;14.20;nan
12197;BME280;6161;43.014;25.840;2022-11-20T14:07:05;99141.28;;;13.71;nan
12197;BME280;6161;43.014;25.840;2022-11-20T14:11:58;99028.44;;;13.68;nan
12197;BME280;6161;43.014;25.840;2022-11-20T14:44:01;99139.72;;;14.00;nan
12197;BME280;6161;43.014;25.840;2022-11-20T14:58:59;99135.41;;;14.14;nan
12197;BME280;6161;43.014;25.840;2022-11-20T15:11:22;99454.81;;;14.11;nan
12197;BME280;6161;43.014;25.840;2022-11-20T15:18:44;99184.88;;;13.98;nan
12197;BME280;6161;43.014;25.840;2022-11-20T15:23:36;99170.84;;;14.03;nan
12197;BME280;6161;43.014;25.840;2022-11-20T15:33:18;99264.38;;;13.71;nan
12197;BME280;6161;43.014;25.840;2022-11-20T15:38:09;99192.72;;;13.53;nan
12197;BME280;6161;43.014;25.840;2022-11-20T15:40:35;99228.41;;;13.55;nan
12197;BME280;6161;43.014;25.840;2022-11-20T15:50:39;99457.78;;;13.28;nan
12197;BME280;6161;43.014;25.840;2022-11-20T16:02:50;99241.09;;;13.47;nan
12197;BME280;6161;43.014;25.840;2022-11-20T16:12:33;99232.41;;;13.68;nan
12197;BME280;6161;43.014;25.840;2022-11-20T16:15:17;99196.53;;;13.67;nan
12197;BME280;6161;43.014;25.840;2022-11-20T16:20:26;99220.22;;;13.80;nan
12197;BME280;6161;43.014;25.840;2022-11-20T16:22:52;99201.50;;;13.78;nan
12197;BME280;6161;43.014;25.840;2022-11-20T16:34:59;99144.88;;;13.24;nan
12197;BME280;6161;43.014;25.840;2022-11-20T16:37:24;99182.44;;;13.18;nan
12197;BME280;6161;43.014;25.840;2022-11-20T16:39:50;99191.84;;;13.13;nan
12197;BME280;6161;43.014;25.840;2022-11-20T16:42:15;99169.84;;;13.10;nan
12197;BME280;6161;43.014;25.840;2022-11-20T16:44:40;99195.06;;;13.09;nan
12197;BME280;6161;43.014;25.840;2022-11-20T17:01:40;99155.94;;;13.38;nan
12197;BME280;6161;43.014;25.840;2022-11-20T17:18:45;99361.25;;;13.64;nan
12197;BME280;6161;43.014;25.840;2022-11-20T17:47:59;99171.28;;;13.37;nan
12197;BME280;6161;43.014;25.840;2022-11-20T17:52:50;99092.97;;;13.39;nan
12197;BME280;6161;43.014;25.840;2022-11-20T17:55:15;99072.28;;;13.39;nan
12197;BME280;6161;43.014;25.840;2022-11-20T18:02:46;99088.66;;;13.29;nan
12197;BME280;6161;43.014;25.840;2022-11-20T18:10:03;99122.91;;;13.44;nan
12197;BME280;6161;43.014;25.840;2022-11-20T18:19:46;99306.94;;;13.44;nan
12197;BME280;6161;43.014;25.840;2022-11-20T18:22:16;99065.22;;;13.38;nan
12197;BME280;6161;43.014;25.840;2022-11-20T18:24:42;99276.31;;;13.29;nan
12197;BME280;6161;43.014;25.840;2022-11-20T18:39:19;99028.94;;;13.49;nan
12197;BME280;6161;43.014;25.840;2022-11-20T18:41:45;99106.50;;;13.53;nan
12197;BME280;6161;43.014;25.840;2022-11-20T18:44:31;99106.03;;;13.50;nan
12197;BME280;6161;43.014;25.840;2022-11-20T18:47:17;99123.75;;;13.44;nan
12197;BME280;6161;43.014;25.840;2022-11-20T19:09:11;99069.63;;;13.31;nan
12197;BME280;6161;43.014;25.840;2022-11-20T19:11:38;98938.34;;;13.33;nan
12197;BME280;6161;43.014;25.840;2022-11-20T19:19:00;98970.50;;;13.26;nan
12197;BME280;6161;43.014;25.840;2022-11-20T19:21:26;99028.06;;;13.25;nan
12197;BME280;6161;43.014;25.840;2022-11-20T19:33:39;99046.84;;;13.10;nan
12197;BME280;6161;43.014;25.840;2022-11-20T19:40:59;98942.44;;;12.98;nan
12197;BME280;6161;43.014;25.840;2022-11-20T19:45:50;99048.97;;;12.92;nan
12197;BME280;6161;43.014;25.840;2022-11-20T19:50:41;99052.28;;;12.94;nan
12197;BME280;6161;43.014;25.840;2022-11-20T19:55:31;99039.50;;;12.96;nan
12197;BME280;6161;43.014;25.840;2022-11-20T20:05:13;98959.13;;;12.93;nan
12197;BME280;6161;43.014;25.840;2022-11-20T20:07:38;98962.84;;;12.92;nan
12197;BME280;6161;43.014;25.840;2022-11-20T20:12:30;99044.78;;;12.81;nan
12197;BME280;6161;43.014;25.840;2022-11-20T20:22:11;98902.91;;;12.75;nan
12197;BME280;6161;43.014;25.840;2022-11-20T20:27:02;99014.72;;;12.78;nan
12197;BME280;6161;43.014;25.840;2022-11-20T20:34:18;98980.84;;;12.60;nan
12197;BME280;6161;43.014;25.840;2022-11-20T20:54:01;98883.69;;;12.24;nan
12197;BME280;6161;43.014;25.840;2022-11-20T20:56:26;98923.56;;;12.12;nan
12197;BME280;6161;43.014;25.840;2022-11-20T21:01:18;98924.53;;;12.19;nan
12197;BME280;6161;43.014;25.840;2022-11-20T21:08:35;98901.22;;;12.12;nan
12197;BME280;6161;43.014;25.840;2022-11-20T21:13:27;98848.44;;;12.19;nan
12197;BME280;6161;43.014;25.840;2022-11-20T21:25:54;98789.91;;;12.06;nan
12197;BME280;6161;43.014;25.840;2022-11-20T21:33:11;98892.69;;;12.00;nan
12197;BME280;6161;43.014;25.840;2022-11-20T21:38:03;98787.59;;;11.95;nan
12197;BME280;6161;43.014;25.840;2022-11-20T21:45:19;98845.75;;;11.88;nan
12197;BME280;6161;43.014;25.840;2022-11-20T21:47:47;98829.81;;;11.78;nan
12197;BME280;6161;43.014;25.840;2022-11-20T21:50:13;99050.88;;;11.37;nan
12197;BME280;6161;43.014;25.840;2022-11-20T21:59:57;98801.41;;;11.83;nan
12197;BME280;6161;43.014;25.840;2022-11-20T22:17:02;98777.28;;;11.75;nan
12197;BME280;6161;43.014;25.840;2022-11-20T22:21:53;98735.47;;;11.73;nan
12197;BME280;6161;43.014;25.840;2022-11-20T22:26:45;98747.53;;;11.77;nan
12197;BME280;6161;43.014;25.840;2022-11-20T22:43:54;98718.41;;;11.66;nan
12197;BME280;6161;43.014;25.840;2022-11-20T23:13:23;98472.66;;;11.47;nan
12197;BME280;6161;43.014;25.840;2022-11-20T23:18:14;98553.44;;;11.37;nan
12197;BME280;6161;43.014;25.840;2022-11-20T23:20:39;98572.53;;;11.42;nan
12197;BME280;6161;43.014;25.840;2022-11-20T23:37:36;98379.31;;;11.19;nan
12197;BME280;6161;43.014;25.840;2022-11-20T23:42:27;98379.03;;;10.91;nan
